LUKK Airport Information

Runway Information
Runway 08 Length 11779 ft width 145 ft
Elevation 399 ft Threshold 0 ft Heading 88
Runway 26 Length 11779 ft Width 145 ft
Elevation 279 ft Threshold 0 ft Heading 268
Airport Frequencies
Type APP Name APP Frequency 125.9 MHZ
Type ATIS Name ATIS Frequency 133.7 MHZ
Type GND Name GND Frequency 121.8 MHZ
Type TWR Name TWR Frequency 118.1 MHZ
Airport Navaids
Type VOR-DME Name Chisinau Frequency 113700 KHZ
Airport Weather Information & NOTAM
ADDS - METARS form results

(0504 UTC 16 October 2019)
Data provider http://aviationweather.gov/metar/data/
 
METAR text: LUKK 160500Z 16003KT 0300 0250SW R08/0325N FG VV001 09/09 Q1020 R08/CLRD// NOSIG
Conditions at: LUKK (CHISINAU INTL , MD) observed 0500 UTC 16 October 2019
Temperature: 9.0°C (48°F)
Dewpoint: 9.0°C (48°F) [RH = 100%]
Pressure (altimeter): 30.12 inches Hg (1020.0 mb)
Winds: from the SSE (160 degrees) at 3 MPH (3 knots; 1.5 m/s)
Visibility: 0.19 miles (0.31 km)
Ceiling: indefinite ceiling with vertical visibility of 100 feet AGL
Clouds: obscured sky
Weather: FG  (fog)

METAR text: LUKK 160430Z VRB01KT 0300 R26/0350N FG VV001 09/09 Q1020 R26/CLRD// NOSIG
Conditions at: LUKK (CHISINAU INTL , MD) observed 0430 UTC 16 October 2019
Temperature: 9.0°C (48°F)
Dewpoint: 9.0°C (48°F) [RH = 100%]
Pressure (altimeter): 30.12 inches Hg (1020.0 mb)
Winds: variable direction winds at 1 MPH (1 knots; 0.5 m/s)
Visibility: 0.19 miles (0.31 km)
Ceiling: indefinite ceiling with vertical visibility of 100 feet AGL
Clouds: obscured sky
Weather: FG  (fog)

Forecast for: AMD
Text: TAF AMD LUKK 160325Z 1603/1624 VRB04KT 0300 FG VV001
Forecast period: 0300 to 0600 UTC 16 October 2019
Forecast type: FROM: standard forecast or significant change
Winds: variable direction winds at 5 MPH (4 knots; 2.1 m/s)
Visibility: 0.19 miles (0.31 km)
Ceiling: indefinite ceiling with vertical visibility of 100 feet AGL
Clouds: obscured sky
Weather: FG  (fog)
Text: TEMPO 1604/1606 0800 VV003
Forecast period: 0400 to 0600 UTC 16 October 2019
Forecast type: TEMPORARY: The following changes expected for less than half the time period
Visibility: 0.50 miles (0.80 km)
Ceiling: indefinite ceiling with vertical visibility of 300 feet AGL
Clouds: obscured sky
Weather: no significant weather forecast for this period
Text: BECMG 1606/1608 14008KT CAVOK
Forecast period: 0600 to 2100 UTC 16 October 2019
Forecast type: BECOMING: Conditions expected to become as follows by 0800 UTC 16 October 2019
Winds: from the SE (140 degrees) at 9 MPH (8 knots; 4.1 m/s)
Visibility: 6 or more miles 10+ km)
Ceiling: unknown
Clouds: missing
Weather: NSW  (no significant weather)
Text: BECMG 1621/1623 3000 BR
Forecast period: 2100 UTC 16 October 2019 to 0000 UTC 17 October 2019
Forecast type: BECOMING: Conditions expected to become as follows by 2300 UTC 16 October 2019
Winds: from the SE (140 degrees) at 9 MPH (8 knots; 4.1 m/s)
Visibility: 1.86 miles (2.99 km)
Ceiling: unknown
Clouds: missing
Weather: BR  (mist)